Brotas de Macaubas, Brazil
Current Conditions -  °F | °C
As of 11:00 AM on Thursday 27 Nov 2014 (Local Time) from SBQV Reporting Station
Broken Clouds Broken Clouds  
Wind Chill: 81°   Ceiling: 2000
Heat Index: 82°   Visibility: 6mi
Dew Point: 64°   Wind: 10mph
Humidity: 58%   Direction: 20°NNE
Pressure: 30.12"   Gusts: NA
Location:  12°S, 42.63°W
Report Text: SBQV 271400Z 02009KT 9999 BKN020 27/18 Q1020
Loading
Personal Weather Stations






























Interactive Weather Map New forecast layout! Learn more

10-Day Weather Forecast

Advertisements
Track Severe Weather on mobile